createdAt,value
2018-08-07T00:01:07.380Z,22.61
2018-08-07T00:03:35.762Z,22.60
2018-08-07T00:06:04.453Z,22.57
2018-08-07T00:08:32.872Z,22.54
2018-08-07T00:11:01.109Z,22.53
2018-08-07T00:13:29.441Z,22.49
2018-08-07T00:15:58.197Z,22.44
2018-08-07T00:18:26.714Z,22.40
2018-08-07T00:20:56.292Z,22.34
2018-08-07T00:23:24.785Z,22.27
2018-08-07T00:25:53.216Z,22.21
2018-08-07T00:28:21.720Z,22.12
2018-08-07T00:30:50.761Z,22.02
2018-08-07T00:33:19.528Z,21.98
2018-08-07T00:35:47.660Z,21.91
2018-08-07T00:38:16.437Z,21.81
2018-08-07T00:40:44.804Z,21.75
2018-08-07T00:43:13.488Z,21.65
2018-08-07T00:45:42.241Z,21.56
2018-08-07T00:48:10.580Z,21.48
2018-08-07T00:50:40.312Z,21.41
2018-08-07T00:53:08.438Z,21.32
2018-08-07T00:55:37.267Z,21.24
2018-08-07T00:58:05.541Z,21.20
2018-08-07T01:00:33.992Z,21.18
2018-08-07T01:03:02.680Z,21.13
2018-08-07T01:05:30.806Z,21.05
2018-08-07T01:07:59.464Z,20.96
2018-08-07T01:10:28.197Z,20.88
2018-08-07T01:12:56.536Z,20.85
2018-08-07T01:15:24.987Z,20.82
2018-08-07T01:17:53.911Z,20.78
2018-08-07T01:20:23.396Z,20.81
2018-08-07T01:22:52.102Z,20.80
2018-08-07T01:25:24.996Z,20.76
2018-08-07T01:27:53.716Z,20.68
2018-08-07T01:30:24.177Z,20.59
2018-08-07T01:32:52.756Z,20.51
2018-08-07T01:35:20.873Z,20.46
2018-08-07T01:37:49.623Z,20.43
2018-08-07T01:40:18.034Z,20.40
2018-08-07T01:42:46.380Z,20.37
2018-08-07T01:45:14.786Z,20.35
2018-08-07T01:47:43.481Z,20.30
2018-08-07T01:50:17.401Z,20.26
2018-08-07T01:52:45.555Z,20.23
2018-08-07T01:55:21.244Z,20.22
2018-08-07T01:57:49.821Z,20.22
2018-08-07T02:00:18.144Z,20.19
2018-08-07T02:02:47.149Z,20.15
2018-08-07T02:05:15.432Z,20.09
2018-08-07T02:07:44.169Z,20.07
2018-08-07T02:10:14.490Z,20.06
2018-08-07T02:12:42.917Z,20.04
2018-08-07T02:15:12.200Z,20.02
2018-08-07T02:17:40.508Z,19.97
2018-08-07T02:20:10.709Z,19.99
2018-08-07T02:22:39.551Z,19.93
2018-08-07T02:25:09.389Z,19.92
2018-08-07T02:27:37.841Z,19.91
2018-08-07T02:30:07.397Z,19.90
2018-08-07T02:32:36.924Z,19.90
2018-08-07T02:35:05.953Z,19.89
2018-08-07T02:37:34.697Z,19.88
2018-08-07T02:40:03.391Z,19.86
2018-08-07T02:42:32.080Z,19.82
2018-08-07T02:45:00.753Z,19.82
2018-08-07T02:47:29.596Z,19.80
2018-08-07T02:49:57.714Z,19.76
2018-08-07T02:52:26.405Z,19.74
2018-08-07T02:54:54.560Z,19.73
2018-08-07T02:57:23.128Z,19.71
2018-08-07T02:59:51.557Z,19.69
2018-08-07T03:02:20.152Z,19.65
2018-08-07T03:04:48.880Z,19.63
2018-08-07T03:07:17.230Z,19.63
2018-08-07T03:09:46.262Z,19.59
2018-08-07T03:12:15.668Z,19.57
2018-08-07T03:14:43.792Z,19.56
2018-08-07T03:17:11.925Z,19.55
2018-08-07T03:19:40.576Z,19.50
2018-08-07T03:22:09.445Z,19.43
2018-08-07T03:24:38.215Z,19.40
2018-08-07T03:27:06.557Z,19.34
2018-08-07T03:29:34.920Z,19.32
2018-08-07T03:32:03.421Z,19.28
2018-08-07T03:34:32.164Z,19.22
2018-08-07T03:37:00.612Z,19.18
2018-08-07T03:39:29.264Z,19.16
2018-08-07T03:41:58.027Z,19.17
2018-08-07T03:44:26.625Z,19.16
2018-08-07T03:46:55.097Z,19.12
2018-08-07T03:49:24.174Z,19.06
2018-08-07T03:51:53.913Z,19.06
2018-08-07T03:54:22.101Z,19.05
2018-08-07T03:56:51.005Z,19.04
2018-08-07T03:59:20.555Z,19.02
2018-08-07T04:01:49.243Z,18.99
2018-08-07T04:04:18.382Z,18.96
2018-08-07T04:06:47.141Z,18.95
2018-08-07T04:09:15.618Z,18.95
2018-08-07T04:11:43.978Z,18.94
2018-08-07T04:14:12.654Z,18.92
2018-08-07T04:16:44.932Z,18.92
2018-08-07T04:19:13.300Z,18.93
2018-08-07T04:21:42.121Z,18.92
2018-08-07T04:24:10.596Z,18.93
2018-08-07T04:26:38.805Z,18.96
2018-08-07T04:29:07.564Z,18.96
2018-08-07T04:31:35.972Z,18.97
2018-08-07T04:34:04.356Z,19.02
2018-08-07T04:36:33.213Z,19.06
2018-08-07T04:39:01.914Z,19.11
2018-08-07T04:41:30.369Z,19.14
2018-08-07T04:43:59.356Z,19.18
2018-08-07T04:46:28.263Z,19.21
2018-08-07T04:48:56.716Z,19.23
2018-08-07T04:51:25.155Z,19.28
2018-08-07T04:53:53.504Z,19.35
2018-08-07T04:56:21.987Z,19.39
2018-08-07T04:58:50.172Z,19.42
2018-08-07T05:01:18.847Z,19.46
2018-08-07T05:03:47.184Z,19.56
2018-08-07T05:06:15.310Z,19.66
2018-08-07T05:08:43.768Z,19.75
2018-08-07T05:11:12.440Z,19.86
2018-08-07T05:13:41.358Z,19.96
2018-08-07T05:16:09.460Z,20.05
2018-08-07T05:18:38.445Z,20.14
2018-08-07T05:21:07.153Z,20.23
2018-08-07T05:23:35.850Z,20.30
2018-08-07T05:26:04.196Z,20.37
2018-08-07T05:28:32.677Z,20.49
2018-08-07T05:31:01.288Z,20.62
2018-08-07T05:33:29.416Z,20.72
2018-08-07T05:35:57.553Z,20.81
2018-08-07T05:38:26.169Z,20.89
2018-08-07T05:40:54.694Z,20.99
2018-08-07T05:43:23.328Z,21.10
2018-08-07T05:45:51.729Z,21.28
2018-08-07T05:48:20.242Z,21.46
2018-08-07T05:50:48.760Z,21.66
2018-08-07T05:53:17.384Z,21.85
2018-08-07T05:55:45.833Z,22.00
2018-08-07T05:58:15.018Z,22.17
2018-08-07T06:00:43.217Z,22.33
2018-08-07T06:03:11.586Z,22.47
2018-08-07T06:05:41.162Z,22.62
2018-08-07T06:08:09.478Z,22.73
2018-08-07T06:10:38.404Z,22.87
2018-08-07T06:13:07.076Z,23.04
2018-08-07T06:15:35.696Z,23.21
2018-08-07T06:18:04.436Z,23.39
2018-08-07T06:20:33.081Z,23.54
2018-08-07T06:23:01.962Z,23.70
2018-08-07T06:25:33.925Z,23.83
2018-08-07T06:28:02.233Z,23.96
2018-08-07T06:30:30.590Z,24.13
2018-08-07T06:32:59.332Z,24.35
2018-08-07T06:35:27.701Z,24.53
2018-08-07T06:37:56.329Z,24.74
2018-08-07T06:40:24.672Z,25.02
2018-08-07T06:42:53.509Z,25.26
2018-08-07T06:45:22.425Z,25.50
2018-08-07T06:47:50.546Z,25.72
2018-08-07T06:50:20.757Z,25.92
2018-08-07T06:52:50.058Z,26.16
2018-08-07T06:55:18.241Z,26.40
2018-08-07T06:57:46.341Z,26.60
2018-08-07T07:00:17.568Z,26.77
2018-08-07T07:02:45.758Z,26.93
2018-08-07T07:05:14.339Z,27.08
2018-08-07T07:07:43.145Z,27.28
2018-08-07T07:10:12.276Z,27.42
2018-08-07T07:12:40.693Z,27.59
2018-08-07T07:15:10.297Z,27.79
2018-08-07T07:17:38.777Z,27.96
2018-08-07T07:20:10.228Z,28.13
2018-08-07T07:22:38.678Z,28.31
2018-08-07T07:25:08.000Z,28.51
2018-08-07T07:27:36.452Z,28.73
2018-08-07T07:30:08.242Z,29.01
2018-08-07T07:32:37.177Z,29.24
2018-08-07T07:35:05.538Z,29.42
2018-08-07T07:37:34.168Z,29.57
2018-08-07T07:40:02.725Z,29.68
2018-08-07T07:42:31.772Z,29.81
2018-08-07T07:45:00.830Z,29.97
2018-08-07T07:47:29.797Z,30.21
2018-08-07T07:49:58.196Z,30.42
2018-08-07T07:52:27.000Z,30.58
2018-08-07T07:54:55.833Z,30.76
2018-08-07T07:57:25.293Z,30.95
2018-08-07T07:59:53.963Z,31.15
2018-08-07T08:02:22.416Z,31.34
2018-08-07T08:04:50.535Z,31.52
2018-08-07T08:07:19.425Z,31.77
2018-08-07T08:09:47.777Z,31.99
2018-08-07T08:12:17.158Z,32.15
2018-08-07T08:14:45.580Z,32.35
2018-08-07T08:17:14.056Z,32.59
2018-08-07T08:19:42.648Z,32.83
2018-08-07T08:22:11.337Z,33.05
2018-08-07T08:24:40.024Z,33.28
2018-08-07T08:27:09.097Z,33.51
2018-08-07T08:29:37.603Z,33.66
2018-08-07T08:32:05.939Z,33.72
2018-08-07T08:34:34.340Z,33.88
2018-08-07T08:37:02.783Z,34.02
2018-08-07T08:39:31.337Z,34.20
2018-08-07T08:41:59.549Z,34.31
2018-08-07T08:44:27.990Z,34.45
2018-08-07T08:46:56.404Z,34.55
2018-08-07T08:49:25.014Z,34.48
2018-08-07T08:51:53.893Z,34.37
2018-08-07T08:54:22.607Z,34.37
2018-08-07T08:56:51.055Z,34.44
2018-08-07T08:59:20.921Z,34.54
2018-08-07T09:01:49.053Z,34.70
2018-08-07T09:04:17.571Z,34.83
2018-08-07T09:06:45.947Z,34.94
2018-08-07T09:09:14.820Z,35.02
2018-08-07T09:11:43.164Z,35.19
2018-08-07T09:14:11.540Z,35.35
2018-08-07T09:16:40.279Z,35.57
2018-08-07T09:19:08.504Z,35.66
2018-08-07T09:21:37.406Z,35.73
2018-08-07T09:24:06.111Z,35.79
2018-08-07T09:26:34.715Z,35.87
2018-08-07T09:29:03.083Z,36.17
2018-08-07T09:31:31.521Z,36.45
2018-08-07T09:33:59.977Z,36.67
2018-08-07T09:36:28.808Z,36.75
2018-08-07T09:38:56.924Z,36.73
2018-08-07T09:41:25.020Z,36.87
2018-08-07T09:43:53.468Z,36.86
2018-08-07T09:46:22.524Z,36.94
2018-08-07T09:48:50.640Z,37.07
2018-08-07T09:51:19.334Z,37.16
2018-08-07T09:53:47.521Z,37.42
2018-08-07T09:56:15.620Z,37.75
2018-08-07T09:58:43.768Z,38.02
2018-08-07T10:01:17.561Z,38.18
2018-08-07T10:03:45.681Z,38.31
2018-08-07T10:06:14.008Z,38.30
2018-08-07T10:08:42.136Z,38.32
2018-08-07T10:11:10.345Z,38.41
2018-08-07T10:13:38.993Z,38.61
2018-08-07T10:16:07.205Z,38.81
2018-08-07T10:18:36.053Z,38.75
2018-08-07T10:21:04.151Z,38.58
2018-08-07T10:23:32.421Z,38.43
2018-08-07T10:26:00.737Z,38.23
2018-08-07T10:28:29.153Z,38.12
2018-08-07T10:30:57.847Z,38.13
2018-08-07T10:33:26.249Z,38.04
2018-08-07T10:35:54.557Z,38.15
2018-08-07T10:38:23.141Z,38.46
2018-08-07T10:40:52.220Z,38.81
2018-08-07T10:43:21.223Z,39.22
2018-08-07T10:45:49.868Z,39.63
2018-08-07T10:48:18.329Z,40.00
2018-08-07T10:50:46.913Z,40.30
2018-08-07T10:53:15.580Z,40.16
2018-08-07T10:55:43.931Z,39.68
2018-08-07T10:58:12.054Z,39.40
2018-08-07T11:00:41.213Z,39.35
2018-08-07T11:03:10.105Z,39.34
2018-08-07T11:05:38.847Z,39.21
2018-08-07T11:08:07.515Z,39.15
2018-08-07T11:10:35.885Z,39.34
2018-08-07T11:13:04.449Z,39.79
2018-08-07T11:15:33.843Z,40.29
2018-08-07T11:18:02.636Z,40.75
2018-08-07T11:20:31.085Z,41.14
2018-08-07T11:25:56.320Z,40.85
2018-08-07T11:28:24.748Z,40.49
2018-08-07T11:30:53.092Z,40.20
2018-08-07T11:33:21.508Z,40.11
2018-08-07T11:35:50.353Z,40.28
2018-08-07T11:38:19.283Z,40.59
2018-08-07T11:40:47.984Z,40.79
2018-08-07T11:43:16.368Z,40.73
2018-08-07T11:45:44.856Z,40.34
2018-08-07T11:48:13.162Z,40.13
2018-08-07T11:50:41.684Z,39.96
2018-08-07T11:53:10.229Z,39.62
2018-08-07T11:55:38.361Z,39.40
2018-08-07T11:58:06.996Z,39.27
2018-08-07T12:00:37.101Z,39.12
2018-08-07T12:03:07.655Z,39.09
2018-08-07T12:05:36.429Z,39.26
2018-08-07T12:08:05.169Z,39.46
2018-08-07T12:10:34.072Z,39.51
2018-08-07T12:13:02.388Z,39.46
2018-08-07T12:15:31.372Z,39.27
2018-08-07T12:18:00.068Z,39.28
2018-08-07T12:20:28.982Z,39.48
2018-08-07T12:22:57.325Z,39.59
2018-08-07T12:25:26.430Z,39.37
2018-08-07T12:27:54.968Z,39.48
2018-08-07T12:30:26.096Z,39.86
2018-08-07T12:32:54.219Z,40.02
2018-08-07T12:35:22.404Z,40.13
2018-08-07T12:37:50.880Z,40.20
2018-08-07T12:40:22.907Z,40.08
2018-08-07T12:42:52.059Z,40.11
2018-08-07T12:45:21.789Z,40.13
2018-08-07T12:47:50.692Z,40.02
2018-08-07T12:50:19.601Z,39.74
2018-08-07T12:52:47.948Z,39.65
2018-08-07T12:55:18.204Z,39.72
2018-08-07T12:57:47.088Z,39.82
2018-08-07T13:00:16.784Z,39.80
2018-08-07T13:02:45.054Z,39.98
2018-08-07T13:05:13.473Z,40.10
2018-08-07T13:07:42.174Z,40.18
2018-08-07T13:10:12.087Z,40.15
2018-08-07T13:12:41.364Z,40.10
2018-08-07T13:15:11.284Z,40.05
2018-08-07T13:17:40.015Z,40.11
2018-08-07T13:20:09.565Z,40.02
2018-08-07T13:22:38.977Z,40.07
2018-08-07T13:25:09.085Z,40.15
2018-08-07T13:27:38.185Z,40.26
2018-08-07T13:30:08.772Z,40.37
2018-08-07T13:32:37.199Z,40.64
2018-08-07T13:35:05.989Z,40.98
2018-08-07T13:37:34.605Z,41.00
2018-08-07T13:40:03.289Z,40.75
2018-08-07T13:42:32.317Z,40.50
2018-08-07T13:45:00.884Z,40.31
2018-08-07T13:47:29.304Z,40.09
2018-08-07T13:49:57.787Z,40.02
2018-08-07T13:52:26.188Z,40.15
2018-08-07T13:54:54.309Z,40.06
2018-08-07T13:57:22.432Z,39.94
2018-08-07T13:59:50.732Z,39.83
2018-08-07T14:02:19.495Z,39.63
2018-08-07T14:04:47.617Z,39.60
2018-08-07T14:07:15.737Z,39.84
2018-08-07T14:09:44.729Z,40.27
2018-08-07T14:12:13.417Z,40.58
2018-08-07T14:14:41.769Z,40.88
2018-08-07T14:17:10.406Z,41.05
2018-08-07T14:19:39.410Z,41.18
2018-08-07T14:22:08.216Z,41.26
2018-08-07T14:24:36.630Z,41.38
2018-08-07T14:27:04.783Z,41.43
2018-08-07T14:29:33.945Z,41.42
2018-08-07T14:32:02.504Z,41.42
2018-08-07T14:34:31.152Z,41.50
2018-08-07T14:36:59.625Z,41.41
2018-08-07T14:39:27.902Z,40.97
2018-08-07T14:41:56.924Z,40.66
2018-08-07T14:44:25.656Z,40.70
2018-08-07T14:46:53.776Z,41.06
2018-08-07T14:49:22.132Z,41.20
2018-08-07T14:51:50.832Z,41.10
2018-08-07T14:54:19.560Z,40.71
2018-08-07T14:56:48.080Z,40.35
2018-08-07T14:59:16.561Z,40.20
2018-08-07T15:01:45.677Z,40.02
2018-08-07T15:04:14.344Z,39.94
2018-08-07T15:06:42.799Z,39.84
2018-08-07T15:09:11.920Z,39.86
2018-08-07T15:11:40.584Z,39.95
2018-08-07T15:14:09.562Z,39.97
2018-08-07T15:16:38.044Z,39.99
2018-08-07T15:19:06.429Z,39.94
2018-08-07T15:21:34.792Z,39.81
2018-08-07T15:24:02.940Z,39.71
2018-08-07T15:26:31.616Z,39.55
2018-08-07T15:29:00.019Z,39.55
2018-08-07T15:31:28.976Z,39.61
2018-08-07T15:33:57.642Z,39.58
2018-08-07T15:36:25.785Z,39.49
2018-08-07T15:38:54.149Z,39.45
2018-08-07T15:41:22.907Z,39.40
2018-08-07T15:43:51.877Z,39.41
2018-08-07T15:46:20.280Z,39.36
2018-08-07T15:48:48.568Z,39.20
2018-08-07T15:51:17.023Z,39.08
2018-08-07T15:53:45.989Z,39.06
2018-08-07T15:56:14.972Z,39.03
2018-08-07T15:58:43.365Z,39.01
2018-08-07T16:01:11.490Z,38.94
2018-08-07T16:03:39.813Z,39.01
2018-08-07T16:06:07.933Z,38.96
2018-08-07T16:08:36.556Z,38.91
2018-08-07T16:11:05.225Z,38.96
2018-08-07T16:13:34.414Z,38.98
2018-08-07T16:16:02.541Z,39.04
2018-08-07T16:18:31.117Z,39.07
2018-08-07T16:20:59.472Z,39.10
2018-08-07T16:23:28.788Z,39.17
2018-08-07T16:25:57.141Z,39.30
2018-08-07T16:28:25.749Z,39.40
2018-08-07T16:30:53.865Z,39.33
2018-08-07T16:33:22.018Z,39.34
2018-08-07T16:35:50.427Z,39.41
2018-08-07T16:38:18.836Z,39.38
2018-08-07T16:40:47.285Z,39.26
2018-08-07T16:43:15.844Z,39.17
2018-08-07T16:45:44.542Z,39.04
2018-08-07T16:48:12.697Z,38.95
2018-08-07T16:50:40.942Z,38.93
2018-08-07T16:53:10.174Z,38.96
2018-08-07T16:55:38.613Z,38.94
2018-08-07T16:58:07.249Z,38.87
2018-08-07T17:00:35.818Z,38.79
2018-08-07T17:03:03.944Z,38.72
2018-08-07T17:05:32.420Z,38.65
2018-08-07T17:08:00.641Z,38.59
2018-08-07T17:10:29.369Z,38.53
2018-08-07T17:12:57.621Z,38.54
2018-08-07T17:15:25.884Z,38.56
2018-08-07T17:17:54.395Z,38.56
2018-08-07T17:20:24.680Z,38.50
2018-08-07T17:22:54.468Z,38.43
2018-08-07T17:25:23.414Z,38.32
2018-08-07T17:27:51.713Z,38.18
2018-08-07T17:30:22.684Z,38.03
2018-08-07T17:32:51.669Z,37.98
2018-08-07T17:35:22.192Z,38.03
2018-08-07T17:37:51.958Z,38.10
2018-08-07T17:40:25.415Z,38.13
2018-08-07T17:42:54.099Z,38.05
2018-08-07T17:45:22.709Z,38.11
2018-08-07T17:47:50.822Z,38.07
2018-08-07T17:50:20.809Z,38.02
2018-08-07T17:52:49.000Z,37.97
2018-08-07T17:55:17.289Z,37.91
2018-08-07T17:57:45.944Z,37.82
2018-08-07T18:00:16.573Z,37.74
2018-08-07T18:02:45.284Z,37.69
2018-08-07T18:05:13.461Z,37.60
2018-08-07T18:07:44.051Z,37.55
2018-08-07T18:10:12.801Z,37.51
2018-08-07T18:12:41.375Z,37.48
2018-08-07T18:15:12.304Z,37.42
2018-08-07T18:17:41.919Z,37.35
2018-08-07T18:20:12.636Z,37.27
2018-08-07T18:22:41.516Z,37.21
2018-08-07T18:25:10.497Z,37.11
2018-08-07T18:27:39.342Z,36.94
2018-08-07T18:30:26.696Z,36.91
2018-08-07T18:32:54.989Z,36.79
2018-08-07T18:35:25.265Z,36.64
2018-08-07T18:37:53.708Z,36.50
2018-08-07T18:40:22.144Z,36.36
2018-08-07T18:42:50.772Z,36.23
2018-08-07T18:45:19.145Z,36.11
2018-08-07T18:47:47.527Z,35.96
2018-08-07T18:50:17.460Z,35.80
2018-08-07T18:52:45.792Z,35.64
2018-08-07T18:55:14.791Z,35.48
2018-08-07T18:57:43.736Z,35.31
2018-08-07T19:00:14.281Z,35.17
2018-08-07T19:02:42.631Z,35.03
2018-08-07T19:05:14.507Z,34.89
2018-08-07T19:07:42.901Z,34.73
2018-08-07T19:10:11.994Z,34.60
2018-08-07T19:12:40.397Z,34.45
2018-08-07T19:15:09.649Z,34.35
2018-08-07T19:17:38.960Z,34.26
2018-08-07T19:20:08.733Z,34.15
2018-08-07T19:22:37.093Z,34.02
2018-08-07T19:25:06.812Z,33.86
2018-08-07T19:27:35.356Z,33.71
2018-08-07T19:30:11.341Z,33.59
2018-08-07T19:32:40.488Z,33.40
2018-08-07T19:35:09.562Z,33.12
2018-08-07T19:37:38.584Z,32.86
2018-08-07T19:40:09.961Z,32.65
2018-08-07T19:42:38.631Z,32.51
2018-08-07T19:45:08.768Z,32.45
2018-08-07T19:47:37.236Z,32.42
2018-08-07T19:50:06.637Z,32.34
2018-08-07T19:52:35.632Z,32.27
2018-08-07T19:55:04.437Z,32.24
2018-08-07T19:57:45.897Z,32.19
2018-08-07T20:00:17.327Z,32.17
2018-08-07T20:02:46.164Z,32.12
2018-08-07T20:05:14.964Z,32.06
2018-08-07T20:07:43.272Z,32.02
2018-08-07T20:10:12.849Z,31.93
2018-08-07T20:12:41.530Z,31.86
2018-08-07T20:15:13.489Z,31.81
2018-08-07T20:17:42.205Z,31.75
2018-08-07T20:20:10.693Z,31.70
2018-08-07T20:22:39.555Z,31.65
2018-08-07T20:25:08.960Z,31.57
2018-08-07T20:27:37.628Z,31.50
2018-08-07T20:30:28.876Z,31.41
2018-08-07T20:32:58.061Z,31.30
2018-08-07T20:35:26.336Z,31.16
2018-08-07T20:37:54.455Z,31.07
2018-08-07T20:40:25.176Z,31.05
2018-08-07T20:42:54.134Z,31.07
2018-08-07T20:45:22.752Z,31.12
2018-08-07T20:47:51.181Z,31.14
2018-08-07T20:50:20.795Z,31.19
2018-08-07T20:52:49.464Z,31.14
2018-08-07T20:55:17.898Z,31.05
2018-08-07T20:57:46.557Z,30.96
2018-08-07T21:00:18.872Z,30.88
2018-08-07T21:02:47.420Z,30.82
2018-08-07T21:05:15.583Z,30.73
2018-08-07T21:07:44.076Z,30.62
2018-08-07T21:10:14.370Z,30.54
2018-08-07T21:12:42.877Z,30.47
2018-08-07T21:15:11.963Z,30.46
2018-08-07T21:17:40.660Z,30.38
2018-08-07T21:20:10.878Z,30.30
2018-08-07T21:22:39.579Z,30.23
2018-08-07T21:25:10.408Z,30.14
2018-08-07T21:27:39.306Z,30.09
2018-08-07T21:30:10.816Z,30.02
2018-08-07T21:32:39.136Z,29.98
2018-08-07T21:35:08.703Z,29.94
2018-08-07T21:37:37.300Z,29.92
2018-08-07T21:40:05.641Z,29.88
2018-08-07T21:42:34.328Z,29.84
2018-08-07T21:45:02.766Z,29.80
2018-08-07T21:47:30.952Z,29.73
2018-08-07T21:49:59.692Z,29.67
2018-08-07T21:52:27.813Z,29.60
2018-08-07T21:54:56.248Z,29.48
2018-08-07T21:57:24.781Z,29.31
2018-08-07T21:59:53.579Z,29.16
2018-08-07T22:02:22.885Z,29.05
2018-08-07T22:04:51.315Z,28.93
2018-08-07T22:07:19.937Z,28.84
2018-08-07T22:09:48.754Z,28.75
2018-08-07T22:12:17.044Z,28.64
2018-08-07T22:14:46.026Z,28.47
2018-08-07T22:17:14.677Z,28.33
2018-08-07T22:19:42.782Z,28.29
2018-08-07T22:22:10.910Z,28.23
2018-08-07T22:24:39.824Z,28.14
2018-08-07T22:27:08.221Z,28.07
2018-08-07T22:29:36.621Z,28.03
2018-08-07T22:32:04.973Z,27.96
2018-08-07T22:34:33.365Z,27.85
2018-08-07T22:37:01.696Z,27.78
2018-08-07T22:39:29.876Z,27.76
2018-08-07T22:41:58.280Z,27.66
2018-08-07T22:44:26.567Z,27.58
2018-08-07T22:46:54.680Z,27.51
2018-08-07T22:49:24.131Z,27.44
2018-08-07T22:51:52.456Z,27.42
2018-08-07T22:54:20.560Z,27.39
2018-08-07T22:56:48.928Z,27.39
2018-08-07T22:59:17.028Z,27.34
2018-08-07T23:01:45.736Z,27.30
2018-08-07T23:04:13.841Z,27.26
2018-08-07T23:06:42.403Z,27.17
2018-08-07T23:09:10.591Z,27.06
2018-08-07T23:11:39.528Z,26.97
2018-08-07T23:14:08.333Z,26.86
2018-08-07T23:16:36.756Z,26.71
2018-08-07T23:19:04.909Z,26.59
2018-08-07T23:21:33.249Z,26.46
2018-08-07T23:24:01.770Z,26.36
2018-08-07T23:26:30.421Z,26.33
2018-08-07T23:28:59.143Z,26.33
2018-08-07T23:31:27.954Z,26.34
2018-08-07T23:33:56.412Z,26.36
2018-08-07T23:36:25.985Z,26.38
2018-08-07T23:38:54.937Z,26.40
2018-08-07T23:41:23.044Z,26.44
2018-08-07T23:43:51.699Z,26.47
2018-08-07T23:46:20.143Z,26.50
2018-08-07T23:48:49.180Z,26.50
2018-08-07T23:51:17.612Z,26.52
2018-08-07T23:53:45.895Z,26.45
2018-08-07T23:56:14.337Z,26.48
2018-08-07T23:58:42.968Z,26.45
